sensor_id;sensor_type;location;lat;lon;timestamp;temperature;humidity
19622;DHT22;9958;33.196;-97.114;2024-02-16T00:01:21;19.90;99.90
19622;DHT22;9958;33.196;-97.114;2024-02-16T00:03:49;19.80;99.90
19622;DHT22;9958;33.196;-97.114;2024-02-16T00:06:18;19.80;99.90
19622;DHT22;9958;33.196;-97.114;2024-02-16T00:08:48;19.70;99.90
19622;DHT22;9958;33.196;-97.114;2024-02-16T00:11:16;19.70;99.90
19622;DHT22;9958;33.196;-97.114;2024-02-16T00:13:45;19.60;99.90
19622;DHT22;9958;33.196;-97.114;2024-02-16T00:16:13;19.50;99.90
19622;DHT22;9958;33.196;-97.114;2024-02-16T00:18:41;19.40;99.90
19622;DHT22;9958;33.196;-97.114;2024-02-16T00:21:10;19.40;99.90
19622;DHT22;9958;33.196;-97.114;2024-02-16T00:23:38;19.30;99.90
19622;DHT22;9958;33.196;-97.114;2024-02-16T00:26:08;19.20;99.90
19622;DHT22;9958;33.196;-97.114;2024-02-16T00:28:36;19.10;99.90
19622;DHT22;9958;33.196;-97.114;2024-02-16T00:31:05;19.00;99.90
19622;DHT22;9958;33.196;-97.114;2024-02-16T00:33:33;18.90;99.90
19622;DHT22;9958;33.196;-97.114;2024-02-16T00:36:01;18.90;99.90
19622;DHT22;9958;33.196;-97.114;2024-02-16T00:38:30;18.80;99.90
19622;DHT22;9958;33.196;-97.114;2024-02-16T00:40:58;18.70;99.90
19622;DHT22;9958;33.196;-97.114;2024-02-16T00:43:28;18.70;99.90
19622;DHT22;9958;33.196;-97.114;2024-02-16T00:45:56;18.60;99.90
19622;DHT22;9958;33.196;-97.114;2024-02-16T00:48:24;18.60;99.90
19622;DHT22;9958;33.196;-97.114;2024-02-16T00:50:53;18.50;99.90
19622;DHT22;9958;33.196;-97.114;2024-02-16T00:53:21;18.50;99.90
19622;DHT22;9958;33.196;-97.114;2024-02-16T00:55:51;18.40;99.90
19622;DHT22;9958;33.196;-97.114;2024-02-16T00:58:19;18.30;99.90
19622;DHT22;9958;33.196;-97.114;2024-02-16T01:00:49;18.30;99.90
19622;DHT22;9958;33.196;-97.114;2024-02-16T01:03:17;18.30;99.90
19622;DHT22;9958;33.196;-97.114;2024-02-16T01:05:46;18.20;99.90
19622;DHT22;9958;33.196;-97.114;2024-02-16T01:08:14;18.10;99.90
19622;DHT22;9958;33.196;-97.114;2024-02-16T01:10:42;18.10;99.90
19622;DHT22;9958;33.196;-97.114;2024-02-16T01:13:10;18.10;99.90
19622;DHT22;9958;33.196;-97.114;2024-02-16T01:15:39;18.00;99.90
19622;DHT22;9958;33.196;-97.114;2024-02-16T01:18:09;18.00;99.90
19622;DHT22;9958;33.196;-97.114;2024-02-16T01:20:37;17.90;99.90
19622;DHT22;9958;33.196;-97.114;2024-02-16T01:23:06;17.90;99.90
19622;DHT22;9958;33.196;-97.114;2024-02-16T01:25:34;17.80;99.90
19622;DHT22;9958;33.196;-97.114;2024-02-16T01:28:03;17.80;99.90
19622;DHT22;9958;33.196;-97.114;2024-02-16T01:30:31;17.80;99.90
19622;DHT22;9958;33.196;-97.114;2024-02-16T01:33:00;17.70;99.90
19622;DHT22;9958;33.196;-97.114;2024-02-16T01:35:30;17.70;99.90
19622;DHT22;9958;33.196;-97.114;2024-02-16T01:37:58;17.60;99.90
19622;DHT22;9958;33.196;-97.114;2024-02-16T01:40:28;17.60;99.90
19622;DHT22;9958;33.196;-97.114;2024-02-16T01:42:56;17.50;99.90
19622;DHT22;9958;33.196;-97.114;2024-02-16T01:45:24;17.50;99.90
19622;DHT22;9958;33.196;-97.114;2024-02-16T01:47:54;17.50;99.90
19622;DHT22;9958;33.196;-97.114;2024-02-16T01:50:23;17.50;99.90
19622;DHT22;9958;33.196;-97.114;2024-02-16T01:52:53;17.40;99.90
19622;DHT22;9958;33.196;-97.114;2024-02-16T01:55:21;17.30;99.90
19622;DHT22;9958;33.196;-97.114;2024-02-16T01:57:50;17.30;99.90
19622;DHT22;9958;33.196;-97.114;2024-02-16T02:00:18;17.30;99.90
19622;DHT22;9958;33.196;-97.114;2024-02-16T02:02:47;17.20;99.90
19622;DHT22;9958;33.196;-97.114;2024-02-16T02:05:15;17.10;99.90
19622;DHT22;9958;33.196;-97.114;2024-02-16T02:07:43;17.10;99.90
19622;DHT22;9958;33.196;-97.114;2024-02-16T02:10:13;17.00;99.90
19622;DHT22;9958;33.196;-97.114;2024-02-16T02:12:42;17.00;99.90
19622;DHT22;9958;33.196;-97.114;2024-02-16T02:15:11;17.00;99.90
19622;DHT22;9958;33.196;-97.114;2024-02-16T02:17:39;16.90;99.90
19622;DHT22;9958;33.196;-97.114;2024-02-16T02:20:08;16.90;99.90
19622;DHT22;9958;33.196;-97.114;2024-02-16T02:22:38;16.80;99.90
19622;DHT22;9958;33.196;-97.114;2024-02-16T02:25:07;16.80;99.90
19622;DHT22;9958;33.196;-97.114;2024-02-16T02:27:37;16.70;99.90
19622;DHT22;9958;33.196;-97.114;2024-02-16T02:30:06;16.70;99.90
19622;DHT22;9958;33.196;-97.114;2024-02-16T02:32:35;16.60;99.90
19622;DHT22;9958;33.196;-97.114;2024-02-16T02:35:04;16.60;99.90
19622;DHT22;9958;33.196;-97.114;2024-02-16T02:37:32;16.60;99.90
19622;DHT22;9958;33.196;-97.114;2024-02-16T02:40:03;16.50;99.90
19622;DHT22;9958;33.196;-97.114;2024-02-16T02:42:34;16.50;99.90
19622;DHT22;9958;33.196;-97.114;2024-02-16T02:45:03;16.40;99.90
19622;DHT22;9958;33.196;-97.114;2024-02-16T02:47:32;16.40;99.90
19622;DHT22;9958;33.196;-97.114;2024-02-16T02:50:00;16.40;99.90
19622;DHT22;9958;33.196;-97.114;2024-02-16T02:52:29;16.30;99.90
19622;DHT22;9958;33.196;-97.114;2024-02-16T02:54:57;16.30;99.90
19622;DHT22;9958;33.196;-97.114;2024-02-16T02:57:27;16.30;99.90
19622;DHT22;9958;33.196;-97.114;2024-02-16T03:00:03;16.20;99.90
19622;DHT22;9958;33.196;-97.114;2024-02-16T03:02:33;16.20;99.90
19622;DHT22;9958;33.196;-97.114;2024-02-16T03:05:01;16.10;99.90
19622;DHT22;9958;33.196;-97.114;2024-02-16T03:07:30;16.10;99.90
19622;DHT22;9958;33.196;-97.114;2024-02-16T03:09:58;16.10;99.90
19622;DHT22;9958;33.196;-97.114;2024-02-16T03:12:28;16.10;99.90
19622;DHT22;9958;33.196;-97.114;2024-02-16T03:14:56;16.20;99.90
19622;DHT22;9958;33.196;-97.114;2024-02-16T03:17:25;16.20;99.90
19622;DHT22;9958;33.196;-97.114;2024-02-16T03:19:53;16.10;99.90
19622;DHT22;9958;33.196;-97.114;2024-02-16T03:22:21;16.10;99.90
19622;DHT22;9958;33.196;-97.114;2024-02-16T03:24:49;16.10;99.90
19622;DHT22;9958;33.196;-97.114;2024-02-16T03:27:18;16.10;99.90
19622;DHT22;9958;33.196;-97.114;2024-02-16T03:29:48;16.20;99.90
19622;DHT22;9958;33.196;-97.114;2024-02-16T03:32:16;16.20;99.90
19622;DHT22;9958;33.196;-97.114;2024-02-16T03:34:44;16.20;99.90
19622;DHT22;9958;33.196;-97.114;2024-02-16T03:37:16;16.20;99.90
19622;DHT22;9958;33.196;-97.114;2024-02-16T03:39:44;16.20;99.90
19622;DHT22;9958;33.196;-97.114;2024-02-16T03:42:12;16.20;99.90
19622;DHT22;9958;33.196;-97.114;2024-02-16T03:44:41;16.20;99.90
19622;DHT22;9958;33.196;-97.114;2024-02-16T03:47:11;16.20;99.90
19622;DHT22;9958;33.196;-97.114;2024-02-16T03:49:40;16.20;99.90
19622;DHT22;9958;33.196;-97.114;2024-02-16T03:52:08;16.20;99.90
19622;DHT22;9958;33.196;-97.114;2024-02-16T03:54:36;16.20;99.90
19622;DHT22;9958;33.196;-97.114;2024-02-16T03:57:05;16.20;99.90
19622;DHT22;9958;33.196;-97.114;2024-02-16T03:59:35;16.20;99.90
19622;DHT22;9958;33.196;-97.114;2024-02-16T04:02:04;16.20;99.90
19622;DHT22;9958;33.196;-97.114;2024-02-16T04:04:33;16.20;99.90
19622;DHT22;9958;33.196;-97.114;2024-02-16T04:07:02;16.20;99.90
19622;DHT22;9958;33.196;-97.114;2024-02-16T04:09:30;16.20;99.90
19622;DHT22;9958;33.196;-97.114;2024-02-16T04:11:59;16.20;99.90
19622;DHT22;9958;33.196;-97.114;2024-02-16T04:14:27;16.20;99.90
19622;DHT22;9958;33.196;-97.114;2024-02-16T04:16:55;16.20;99.90
19622;DHT22;9958;33.196;-97.114;2024-02-16T04:19:27;16.20;99.90
19622;DHT22;9958;33.196;-97.114;2024-02-16T04:21:56;16.20;99.90
19622;DHT22;9958;33.196;-97.114;2024-02-16T04:24:25;16.20;99.90
19622;DHT22;9958;33.196;-97.114;2024-02-16T04:26:53;16.20;99.90
19622;DHT22;9958;33.196;-97.114;2024-02-16T04:29:21;16.20;99.90
19622;DHT22;9958;33.196;-97.114;2024-02-16T04:31:50;16.20;99.90
19622;DHT22;9958;33.196;-97.114;2024-02-16T04:34:18;16.20;99.90
19622;DHT22;9958;33.196;-97.114;2024-02-16T04:36:46;16.20;99.90
19622;DHT22;9958;33.196;-97.114;2024-02-16T04:39:16;16.20;99.90
19622;DHT22;9958;33.196;-97.114;2024-02-16T04:41:46;16.20;99.90
19622;DHT22;9958;33.196;-97.114;2024-02-16T04:44:14;16.20;99.90
19622;DHT22;9958;33.196;-97.114;2024-02-16T04:46:43;16.20;99.90
19622;DHT22;9958;33.196;-97.114;2024-02-16T04:49:12;16.20;99.90
19622;DHT22;9958;33.196;-97.114;2024-02-16T04:51:40;16.10;99.90
19622;DHT22;9958;33.196;-97.114;2024-02-16T04:54:08;16.10;99.90
19622;DHT22;9958;33.196;-97.114;2024-02-16T04:56:39;16.10;99.90
19622;DHT22;9958;33.196;-97.114;2024-02-16T04:59:09;16.10;99.90
19622;DHT22;9958;33.196;-97.114;2024-02-16T05:01:37;16.10;99.90
19622;DHT22;9958;33.196;-97.114;2024-02-16T05:04:06;16.10;99.90
19622;DHT22;9958;33.196;-97.114;2024-02-16T05:06:39;16.10;99.90
19622;DHT22;9958;33.196;-97.114;2024-02-16T05:09:08;16.10;99.90
19622;DHT22;9958;33.196;-97.114;2024-02-16T05:11:36;16.10;99.90
19622;DHT22;9958;33.196;-97.114;2024-02-16T05:14:06;16.10;99.90
19622;DHT22;9958;33.196;-97.114;2024-02-16T05:16:34;16.10;99.90
19622;DHT22;9958;33.196;-97.114;2024-02-16T05:19:03;16.00;99.90
19622;DHT22;9958;33.196;-97.114;2024-02-16T05:21:31;16.00;99.90
19622;DHT22;9958;33.196;-97.114;2024-02-16T05:24:00;16.00;99.90
19622;DHT22;9958;33.196;-97.114;2024-02-16T05:26:29;16.00;99.90
19622;DHT22;9958;33.196;-97.114;2024-02-16T05:28:57;16.00;99.90
19622;DHT22;9958;33.196;-97.114;2024-02-16T05:31:27;16.00;99.90
19622;DHT22;9958;33.196;-97.114;2024-02-16T05:33:57;16.00;99.90
19622;DHT22;9958;33.196;-97.114;2024-02-16T05:36:26;16.00;99.90
19622;DHT22;9958;33.196;-97.114;2024-02-16T05:38:57;16.00;99.90
19622;DHT22;9958;33.196;-97.114;2024-02-16T05:41:36;16.00;99.90
19622;DHT22;9958;33.196;-97.114;2024-02-16T05:44:05;16.00;99.90
19622;DHT22;9958;33.196;-97.114;2024-02-16T05:46:34;16.00;99.90
19622;DHT22;9958;33.196;-97.114;2024-02-16T05:49:04;16.00;99.90
19622;DHT22;9958;33.196;-97.114;2024-02-16T05:51:35;16.00;99.90
19622;DHT22;9958;33.196;-97.114;2024-02-16T05:54:04;16.00;99.90
19622;DHT22;9958;33.196;-97.114;2024-02-16T05:56:34;16.00;99.90
19622;DHT22;9958;33.196;-97.114;2024-02-16T05:59:03;15.90;99.90
19622;DHT22;9958;33.196;-97.114;2024-02-16T06:01:32;15.90;99.90
19622;DHT22;9958;33.196;-97.114;2024-02-16T06:04:01;15.90;99.90
19622;DHT22;9958;33.196;-97.114;2024-02-16T06:06:30;15.90;99.90
19622;DHT22;9958;33.196;-97.114;2024-02-16T06:08:58;15.90;99.90
19622;DHT22;9958;33.196;-97.114;2024-02-16T06:11:26;15.90;99.90
19622;DHT22;9958;33.196;-97.114;2024-02-16T06:13:55;15.90;99.90
19622;DHT22;9958;33.196;-97.114;2024-02-16T06:16:23;15.90;99.90
19622;DHT22;9958;33.196;-97.114;2024-02-16T06:18:51;15.80;99.90
19622;DHT22;9958;33.196;-97.114;2024-02-16T06:21:21;15.80;99.90
19622;DHT22;9958;33.196;-97.114;2024-02-16T06:23:49;15.80;99.90
19622;DHT22;9958;33.196;-97.114;2024-02-16T06:26:18;15.80;99.90
19622;DHT22;9958;33.196;-97.114;2024-02-16T06:28:46;15.80;99.90
19622;DHT22;9958;33.196;-97.114;2024-02-16T06:31:15;15.80;99.90
19622;DHT22;9958;33.196;-97.114;2024-02-16T06:33:43;15.80;99.90
19622;DHT22;9958;33.196;-97.114;2024-02-16T06:36:11;15.70;99.90
19622;DHT22;9958;33.196;-97.114;2024-02-16T06:38:41;15.70;99.90
19622;DHT22;9958;33.196;-97.114;2024-02-16T06:41:10;15.70;99.90
19622;DHT22;9958;33.196;-97.114;2024-02-16T06:43:40;15.70;99.90
19622;DHT22;9958;33.196;-97.114;2024-02-16T06:46:09;15.70;99.90
19622;DHT22;9958;33.196;-97.114;2024-02-16T06:48:37;15.70;99.90
19622;DHT22;9958;33.196;-97.114;2024-02-16T06:51:06;15.70;99.90
19622;DHT22;9958;33.196;-97.114;2024-02-16T06:53:34;15.70;99.90
19622;DHT22;9958;33.196;-97.114;2024-02-16T06:56:04;15.60;99.90
19622;DHT22;9958;33.196;-97.114;2024-02-16T06:58:33;15.60;99.90
19622;DHT22;9958;33.196;-97.114;2024-02-16T07:01:02;15.60;99.90
19622;DHT22;9958;33.196;-97.114;2024-02-16T07:03:31;15.60;99.90
19622;DHT22;9958;33.196;-97.114;2024-02-16T07:05:59;15.60;99.90
19622;DHT22;9958;33.196;-97.114;2024-02-16T07:08:27;15.50;99.90
19622;DHT22;9958;33.196;-97.114;2024-02-16T07:10:56;15.50;99.90
19622;DHT22;9958;33.196;-97.114;2024-02-16T07:13:26;15.50;99.90
19622;DHT22;9958;33.196;-97.114;2024-02-16T07:15:54;15.50;99.90
19622;DHT22;9958;33.196;-97.114;2024-02-16T07:18:22;15.50;99.90
19622;DHT22;9958;33.196;-97.114;2024-02-16T07:20:50;15.40;99.90
19622;DHT22;9958;33.196;-97.114;2024-02-16T07:23:19;15.40;99.90
19622;DHT22;9958;33.196;-97.114;2024-02-16T07:25:47;15.40;99.90
19622;DHT22;9958;33.196;-97.114;2024-02-16T07:28:16;15.40;99.90
19622;DHT22;9958;33.196;-97.114;2024-02-16T07:30:46;15.40;99.90
19622;DHT22;9958;33.196;-97.114;2024-02-16T07:33:14;15.40;99.90
19622;DHT22;9958;33.196;-97.114;2024-02-16T07:35:43;15.40;99.90
19622;DHT22;9958;33.196;-97.114;2024-02-16T07:38:11;15.30;99.90
19622;DHT22;9958;33.196;-97.114;2024-02-16T07:40:40;15.30;99.90
19622;DHT22;9958;33.196;-97.114;2024-02-16T07:43:08;15.30;99.90
19622;DHT22;9958;33.196;-97.114;2024-02-16T07:45:36;15.30;99.90
19622;DHT22;9958;33.196;-97.114;2024-02-16T07:48:07;15.30;99.90
19622;DHT22;9958;33.196;-97.114;2024-02-16T07:50:35;15.30;99.90
19622;DHT22;9958;33.196;-97.114;2024-02-16T07:53:03;15.30;99.90
19622;DHT22;9958;33.196;-97.114;2024-02-16T07:55:32;15.30;99.90
19622;DHT22;9958;33.196;-97.114;2024-02-16T07:58:00;15.30;99.90
19622;DHT22;9958;33.196;-97.114;2024-02-16T08:00:29;15.30;99.90
19622;DHT22;9958;33.196;-97.114;2024-02-16T08:02:57;15.20;99.90
19622;DHT22;9958;33.196;-97.114;2024-02-16T08:05:27;15.20;99.90
19622;DHT22;9958;33.196;-97.114;2024-02-16T08:07:55;15.20;99.90
19622;DHT22;9958;33.196;-97.114;2024-02-16T08:10:24;15.20;99.90
19622;DHT22;9958;33.196;-97.114;2024-02-16T08:12:53;15.20;99.90
19622;DHT22;9958;33.196;-97.114;2024-02-16T08:15:21;15.10;99.90
19622;DHT22;9958;33.196;-97.114;2024-02-16T08:17:52;15.10;99.90
19622;DHT22;9958;33.196;-97.114;2024-02-16T08:20:21;15.10;99.90
19622;DHT22;9958;33.196;-97.114;2024-02-16T08:22:50;15.10;99.90
19622;DHT22;9958;33.196;-97.114;2024-02-16T08:25:19;15.10;99.90
19622;DHT22;9958;33.196;-97.114;2024-02-16T08:27:48;15.00;99.90
19622;DHT22;9958;33.196;-97.114;2024-02-16T08:30:17;15.00;99.90
19622;DHT22;9958;33.196;-97.114;2024-02-16T08:32:45;15.00;99.90
19622;DHT22;9958;33.196;-97.114;2024-02-16T08:35:14;15.00;99.90
19622;DHT22;9958;33.196;-97.114;2024-02-16T08:37:43;15.00;99.90
19622;DHT22;9958;33.196;-97.114;2024-02-16T08:40:14;15.00;99.90
19622;DHT22;9958;33.196;-97.114;2024-02-16T08:42:42;14.90;99.90
19622;DHT22;9958;33.196;-97.114;2024-02-16T08:45:11;14.90;99.90
19622;DHT22;9958;33.196;-97.114;2024-02-16T08:47:41;14.90;99.90
19622;DHT22;9958;33.196;-97.114;2024-02-16T08:50:10;14.90;99.90
19622;DHT22;9958;33.196;-97.114;2024-02-16T08:52:39;14.90;99.90
19622;DHT22;9958;33.196;-97.114;2024-02-16T08:55:08;14.90;99.90
19622;DHT22;9958;33.196;-97.114;2024-02-16T08:57:38;14.90;99.90
19622;DHT22;9958;33.196;-97.114;2024-02-16T09:00:08;14.90;99.90
19622;DHT22;9958;33.196;-97.114;2024-02-16T09:02:38;14.90;99.90
19622;DHT22;9958;33.196;-97.114;2024-02-16T09:05:07;14.90;99.90
19622;DHT22;9958;33.196;-97.114;2024-02-16T09:07:36;14.90;99.90
19622;DHT22;9958;33.196;-97.114;2024-02-16T09:10:05;14.90;99.90
19622;DHT22;9958;33.196;-97.114;2024-02-16T09:12:34;14.90;99.90
19622;DHT22;9958;33.196;-97.114;2024-02-16T09:15:04;14.90;99.90
19622;DHT22;9958;33.196;-97.114;2024-02-16T09:17:33;14.90;99.90
19622;DHT22;9958;33.196;-97.114;2024-02-16T09:20:01;14.90;99.90
19622;DHT22;9958;33.196;-97.114;2024-02-16T09:22:30;14.90;99.90
19622;DHT22;9958;33.196;-97.114;2024-02-16T09:24:59;14.90;99.90
19622;DHT22;9958;33.196;-97.114;2024-02-16T09:27:28;14.90;99.90
19622;DHT22;9958;33.196;-97.114;2024-02-16T09:29:56;14.90;99.90
19622;DHT22;9958;33.196;-97.114;2024-02-16T09:32:26;14.90;99.90
19622;DHT22;9958;33.196;-97.114;2024-02-16T09:34:55;14.90;99.90
19622;DHT22;9958;33.196;-97.114;2024-02-16T09:37:23;14.90;99.90
19622;DHT22;9958;33.196;-97.114;2024-02-16T09:39:51;14.80;99.90
19622;DHT22;9958;33.196;-97.114;2024-02-16T09:42:21;14.80;99.90
19622;DHT22;9958;33.196;-97.114;2024-02-16T09:44:52;14.80;99.90
19622;DHT22;9958;33.196;-97.114;2024-02-16T09:47:22;14.80;99.90
19622;DHT22;9958;33.196;-97.114;2024-02-16T09:49:54;14.80;99.90
19622;DHT22;9958;33.196;-97.114;2024-02-16T09:52:22;14.80;99.90
19622;DHT22;9958;33.196;-97.114;2024-02-16T09:54:51;14.80;99.90
19622;DHT22;9958;33.196;-97.114;2024-02-16T09:57:19;14.70;99.90
19622;DHT22;9958;33.196;-97.114;2024-02-16T09:59:48;14.70;99.90
19622;DHT22;9958;33.196;-97.114;2024-02-16T10:02:16;14.70;99.90
19622;DHT22;9958;33.196;-97.114;2024-02-16T10:04:44;14.70;99.90
19622;DHT22;9958;33.196;-97.114;2024-02-16T10:07:14;14.70;99.90
19622;DHT22;9958;33.196;-97.114;2024-02-16T10:09:43;14.70;99.90
19622;DHT22;9958;33.196;-97.114;2024-02-16T10:12:17;14.70;99.90
19622;DHT22;9958;33.196;-97.114;2024-02-16T10:14:54;14.70;99.90
19622;DHT22;9958;33.196;-97.114;2024-02-16T10:17:25;14.70;99.90
19622;DHT22;9958;33.196;-97.114;2024-02-16T10:19:56;14.70;99.90
19622;DHT22;9958;33.196;-97.114;2024-02-16T10:22:26;14.70;99.90
19622;DHT22;9958;33.196;-97.114;2024-02-16T10:24:55;14.70;99.90
19622;DHT22;9958;33.196;-97.114;2024-02-16T10:27:23;14.70;99.90
19622;DHT22;9958;33.196;-97.114;2024-02-16T10:29:54;14.70;99.90
19622;DHT22;9958;33.196;-97.114;2024-02-16T10:32:22;14.70;99.90
19622;DHT22;9958;33.196;-97.114;2024-02-16T10:34:52;14.70;99.90
19622;DHT22;9958;33.196;-97.114;2024-02-16T10:37:22;14.70;99.90
19622;DHT22;9958;33.196;-97.114;2024-02-16T10:39:52;14.70;99.90
19622;DHT22;9958;33.196;-97.114;2024-02-16T10:42:22;14.60;99.90
19622;DHT22;9958;33.196;-97.114;2024-02-16T10:44:53;14.60;99.90
19622;DHT22;9958;33.196;-97.114;2024-02-16T10:47:21;14.60;99.90
19622;DHT22;9958;33.196;-97.114;2024-02-16T10:49:50;14.60;99.90
19622;DHT22;9958;33.196;-97.114;2024-02-16T10:52:18;14.60;99.90
19622;DHT22;9958;33.196;-97.114;2024-02-16T10:54:47;14.60;99.90
19622;DHT22;9958;33.196;-97.114;2024-02-16T10:57:17;14.50;99.90
19622;DHT22;9958;33.196;-97.114;2024-02-16T10:59:46;14.50;99.90
19622;DHT22;9958;33.196;-97.114;2024-02-16T11:02:16;14.50;99.90
19622;DHT22;9958;33.196;-97.114;2024-02-16T11:04:46;14.50;99.90
19622;DHT22;9958;33.196;-97.114;2024-02-16T11:07:17;14.50;99.90
19622;DHT22;9958;33.196;-97.114;2024-02-16T11:09:46;14.50;99.90
19622;DHT22;9958;33.196;-97.114;2024-02-16T11:12:16;14.50;99.90
19622;DHT22;9958;33.196;-97.114;2024-02-16T11:14:45;14.50;99.90
19622;DHT22;9958;33.196;-97.114;2024-02-16T11:17:15;14.50;99.90
19622;DHT22;9958;33.196;-97.114;2024-02-16T11:19:44;14.50;99.90
19622;DHT22;9958;33.196;-97.114;2024-02-16T11:22:16;14.50;99.90
19622;DHT22;9958;33.196;-97.114;2024-02-16T11:24:45;14.50;99.90
19622;DHT22;9958;33.196;-97.114;2024-02-16T11:27:13;14.50;99.90
19622;DHT22;9958;33.196;-97.114;2024-02-16T11:29:47;14.50;99.90
19622;DHT22;9958;33.196;-97.114;2024-02-16T11:32:15;14.50;99.90
19622;DHT22;9958;33.196;-97.114;2024-02-16T11:34:44;14.50;99.90
19622;DHT22;9958;33.196;-97.114;2024-02-16T11:37:13;14.50;99.90
19622;DHT22;9958;33.196;-97.114;2024-02-16T11:39:42;14.50;99.90
19622;DHT22;9958;33.196;-97.114;2024-02-16T11:42:13;14.50;99.90
19622;DHT22;9958;33.196;-97.114;2024-02-16T11:44:52;14.50;99.90
19622;DHT22;9958;33.196;-97.114;2024-02-16T11:47:22;14.50;99.90
19622;DHT22;9958;33.196;-97.114;2024-02-16T11:50:01;14.50;99.90
19622;DHT22;9958;33.196;-97.114;2024-02-16T11:52:29;14.50;99.90
19622;DHT22;9958;33.196;-97.114;2024-02-16T11:54:57;14.60;99.90
19622;DHT22;9958;33.196;-97.114;2024-02-16T11:57:27;14.60;99.90
19622;DHT22;9958;33.196;-97.114;2024-02-16T11:59:57;14.60;99.90
19622;DHT22;9958;33.196;-97.114;2024-02-16T12:02:25;14.60;99.90
19622;DHT22;9958;33.196;-97.114;2024-02-16T12:04:58;14.60;99.90
19622;DHT22;9958;33.196;-97.114;2024-02-16T12:07:27;14.60;99.90
19622;DHT22;9958;33.196;-97.114;2024-02-16T12:09:57;14.60;99.90
19622;DHT22;9958;33.196;-97.114;2024-02-16T12:12:25;14.60;99.90
19622;DHT22;9958;33.196;-97.114;2024-02-16T12:14:56;14.60;99.90
19622;DHT22;9958;33.196;-97.114;2024-02-16T12:17:24;14.60;99.90
19622;DHT22;9958;33.196;-97.114;2024-02-16T12:19:53;14.60;99.90
19622;DHT22;9958;33.196;-97.114;2024-02-16T12:22:22;14.60;99.90
19622;DHT22;9958;33.196;-97.114;2024-02-16T12:24:51;14.60;99.90
19622;DHT22;9958;33.196;-97.114;2024-02-16T12:27:19;14.60;99.90
19622;DHT22;9958;33.196;-97.114;2024-02-16T12:29:47;14.60;99.90
19622;DHT22;9958;33.196;-97.114;2024-02-16T12:32:17;14.70;99.90
19622;DHT22;9958;33.196;-97.114;2024-02-16T12:34:46;14.60;99.90
19622;DHT22;9958;33.196;-97.114;2024-02-16T12:37:14;14.70;99.90
19622;DHT22;9958;33.196;-97.114;2024-02-16T12:39:44;14.70;99.90
19622;DHT22;9958;33.196;-97.114;2024-02-16T12:42:14;14.70;99.90
19622;DHT22;9958;33.196;-97.114;2024-02-16T12:44:43;14.70;99.90
19622;DHT22;9958;33.196;-97.114;2024-02-16T12:47:11;14.70;99.90
19622;DHT22;9958;33.196;-97.114;2024-02-16T12:49:41;14.70;99.90
19622;DHT22;9958;33.196;-97.114;2024-02-16T12:52:09;14.80;99.90
19622;DHT22;9958;33.196;-97.114;2024-02-16T12:54:38;14.80;99.90
19622;DHT22;9958;33.196;-97.114;2024-02-16T12:57:12;14.80;99.90
19622;DHT22;9958;33.196;-97.114;2024-02-16T12:59:41;14.80;99.90
19622;DHT22;9958;33.196;-97.114;2024-02-16T13:02:09;14.80;99.90
19622;DHT22;9958;33.196;-97.114;2024-02-16T13:04:37;14.80;99.90
19622;DHT22;9958;33.196;-97.114;2024-02-16T13:07:08;14.80;99.90
19622;DHT22;9958;33.196;-97.114;2024-02-16T13:09:36;14.80;99.90
19622;DHT22;9958;33.196;-97.114;2024-02-16T13:12:05;14.90;99.90
19622;DHT22;9958;33.196;-97.114;2024-02-16T13:14:33;14.90;99.90
19622;DHT22;9958;33.196;-97.114;2024-02-16T13:17:01;14.90;99.90
19622;DHT22;9958;33.196;-97.114;2024-02-16T13:19:30;14.90;99.90
19622;DHT22;9958;33.196;-97.114;2024-02-16T13:21:58;14.90;99.90
19622;DHT22;9958;33.196;-97.114;2024-02-16T13:24:28;14.90;99.90
19622;DHT22;9958;33.196;-97.114;2024-02-16T13:26:56;14.90;99.90
19622;DHT22;9958;33.196;-97.114;2024-02-16T13:29:24;14.90;99.90
19622;DHT22;9958;33.196;-97.114;2024-02-16T13:31:53;14.90;99.90
19622;DHT22;9958;33.196;-97.114;2024-02-16T13:34:21;14.90;99.90
19622;DHT22;9958;33.196;-97.114;2024-02-16T13:36:50;14.90;99.90
19622;DHT22;9958;33.196;-97.114;2024-02-16T13:39:18;14.90;99.90
19622;DHT22;9958;33.196;-97.114;2024-02-16T13:41:49;15.00;99.90
19622;DHT22;9958;33.196;-97.114;2024-02-16T13:44:18;15.00;99.90
19622;DHT22;9958;33.196;-97.114;2024-02-16T13:46:47;15.00;99.90
19622;DHT22;9958;33.196;-97.114;2024-02-16T13:49:15;15.00;99.90
19622;DHT22;9958;33.196;-97.114;2024-02-16T13:51:44;15.00;99.90
19622;DHT22;9958;33.196;-97.114;2024-02-16T13:54:12;15.10;99.90
19622;DHT22;9958;33.196;-97.114;2024-02-16T13:56:41;15.10;99.90
19622;DHT22;9958;33.196;-97.114;2024-02-16T13:59:11;15.10;99.90
19622;DHT22;9958;33.196;-97.114;2024-02-16T14:01:39;15.20;99.90
19622;DHT22;9958;33.196;-97.114;2024-02-16T14:04:07;15.20;99.90
19622;DHT22;9958;33.196;-97.114;2024-02-16T14:06:36;15.20;99.90
19622;DHT22;9958;33.196;-97.114;2024-02-16T14:09:04;15.30;99.90
19622;DHT22;9958;33.196;-97.114;2024-02-16T14:11:35;15.30;99.90
19622;DHT22;9958;33.196;-97.114;2024-02-16T14:14:05;15.40;99.90
19622;DHT22;9958;33.196;-97.114;2024-02-16T14:16:35;15.40;99.90
19622;DHT22;9958;33.196;-97.114;2024-02-16T14:19:03;15.50;99.90
19622;DHT22;9958;33.196;-97.114;2024-02-16T14:21:32;15.50;99.90
19622;DHT22;9958;33.196;-97.114;2024-02-16T14:24:00;15.60;99.90
19622;DHT22;9958;33.196;-97.114;2024-02-16T14:26:28;15.60;99.90
19622;DHT22;9958;33.196;-97.114;2024-02-16T14:28:57;15.70;99.90
19622;DHT22;9958;33.196;-97.114;2024-02-16T14:31:25;15.80;99.90
19622;DHT22;9958;33.196;-97.114;2024-02-16T14:33:55;15.80;99.90
19622;DHT22;9958;33.196;-97.114;2024-02-16T14:36:24;15.90;99.90
19622;DHT22;9958;33.196;-97.114;2024-02-16T14:38:52;16.00;99.90
19622;DHT22;9958;33.196;-97.114;2024-02-16T14:41:20;16.00;99.90
19622;DHT22;9958;33.196;-97.114;2024-02-16T14:43:49;16.10;99.90
19622;DHT22;9958;33.196;-97.114;2024-02-16T14:46:17;16.20;99.90
19622;DHT22;9958;33.196;-97.114;2024-02-16T14:48:46;16.40;99.90
19622;DHT22;9958;33.196;-97.114;2024-02-16T14:51:16;16.50;99.90
19622;DHT22;9958;33.196;-97.114;2024-02-16T14:53:44;16.50;99.90
19622;DHT22;9958;33.196;-97.114;2024-02-16T14:56:12;16.60;99.90
19622;DHT22;9958;33.196;-97.114;2024-02-16T14:58:45;16.70;99.90
19622;DHT22;9958;33.196;-97.114;2024-02-16T15:01:13;16.80;99.90
19622;DHT22;9958;33.196;-97.114;2024-02-16T15:03:41;16.90;99.90
19622;DHT22;9958;33.196;-97.114;2024-02-16T15:06:10;16.90;99.90
19622;DHT22;9958;33.196;-97.114;2024-02-16T15:08:40;17.00;99.90
19622;DHT22;9958;33.196;-97.114;2024-02-16T15:11:08;17.10;99.90
19622;DHT22;9958;33.196;-97.114;2024-02-16T15:13:36;17.20;99.90
19622;DHT22;9958;33.196;-97.114;2024-02-16T15:16:06;17.20;99.90
19622;DHT22;9958;33.196;-97.114;2024-02-16T15:18:35;17.30;99.90
19622;DHT22;9958;33.196;-97.114;2024-02-16T15:21:03;17.40;99.90
19622;DHT22;9958;33.196;-97.114;2024-02-16T15:23:32;17.50;99.90
19622;DHT22;9958;33.196;-97.114;2024-02-16T15:26:02;17.50;99.90